createdAt,value
2017-06-27T00:00:15.542Z,0
2017-06-27T00:01:15.525Z,0
2017-06-27T00:02:15.821Z,0
2017-06-27T00:03:15.543Z,0
2017-06-27T00:04:15.166Z,0
2017-06-27T00:05:15.779Z,0
2017-06-27T00:06:15.150Z,0
2017-06-27T00:07:15.137Z,0
2017-06-27T00:08:15.746Z,0
2017-06-27T00:09:15.110Z,0
2017-06-27T00:10:14.783Z,0
2017-06-27T00:11:15.716Z,0
2017-06-27T00:12:15.701Z,0
2017-06-27T00:13:15.373Z,0
2017-06-27T00:14:15.087Z,0
2017-06-27T00:15:15.042Z,0
2017-06-27T00:16:15.344Z,0
2017-06-27T00:17:15.326Z,0
2017-06-27T00:18:15.634Z,0
2017-06-27T00:19:14.997Z,0
2017-06-27T00:20:15.298Z,0
2017-06-27T00:21:14.976Z,0
2017-06-27T00:22:15.273Z,0
2017-06-27T00:23:14.947Z,0
2017-06-27T00:24:15.567Z,0
2017-06-27T00:25:15.235Z,0
2017-06-27T00:26:15.222Z,0
2017-06-27T00:27:14.895Z,0
2017-06-27T00:28:15.209Z,0
2017-06-27T00:29:15.184Z,0
2017-06-27T00:30:14.861Z,0
2017-06-27T00:31:15.168Z,0
2017-06-27T00:32:15.463Z,0
2017-06-27T00:33:14.523Z,0
2017-06-27T00:34:15.126Z,0
2017-06-27T00:35:14.800Z,0
2017-06-27T00:36:15.101Z,0
2017-06-27T00:37:14.781Z,0
2017-06-27T00:38:15.078Z,0
2017-06-27T00:39:15.066Z,0
2017-06-27T00:40:15.055Z,0
2017-06-27T00:41:14.765Z,0
2017-06-27T00:42:14.721Z,0
2017-06-27T00:43:15.333Z,0
2017-06-27T00:44:14.739Z,0
2017-06-27T00:45:15.306Z,0
2017-06-27T00:46:14.668Z,0
2017-06-27T00:47:14.667Z,0
2017-06-27T00:48:15.268Z,0
2017-06-27T00:49:14.635Z,0
2017-06-27T00:50:14.624Z,0
2017-06-27T00:51:14.607Z,0
2017-06-27T00:52:15.270Z,0
2017-06-27T00:53:15.215Z,0
2017-06-27T00:54:14.884Z,0
2017-06-27T00:55:14.924Z,0
2017-06-27T00:56:14.854Z,0
2017-06-27T00:57:14.848Z,0
2017-06-27T00:58:15.145Z,0
2017-06-27T00:59:15.140Z,0
2017-06-27T01:00:14.496Z,0
2017-06-27T01:01:14.802Z,0
2017-06-27T01:02:15.104Z,0
2017-06-27T01:03:14.461Z,0
2017-06-27T01:04:14.760Z,0
2017-06-27T01:05:14.437Z,0
2017-06-27T01:06:14.740Z,0
2017-06-27T01:07:15.039Z,0
2017-06-27T01:08:14.745Z,0
2017-06-27T01:09:15.013Z,0
2017-06-27T01:10:15.009Z,0
2017-06-27T01:11:14.724Z,0
2017-06-27T01:12:14.352Z,0
2017-06-27T01:13:14.653Z,0
2017-06-27T01:14:14.639Z,0
2017-06-27T01:15:14.969Z,0
2017-06-27T01:16:14.925Z,0
2017-06-27T01:17:14.288Z,0
2017-06-27T01:18:14.593Z,0
2017-06-27T01:19:14.894Z,0
2017-06-27T01:20:14.263Z,0
2017-06-27T01:21:14.245Z,0
2017-06-27T01:22:14.854Z,0
2017-06-27T01:23:14.673Z,0
2017-06-27T01:24:14.214Z,0
2017-06-27T01:25:14.817Z,0
2017-06-27T01:26:14.496Z,0
2017-06-27T01:27:14.485Z,0
2017-06-27T01:28:14.782Z,0
2017-06-27T01:29:14.778Z,0
2017-06-27T01:30:14.148Z,0
2017-06-27T01:31:14.120Z,0
2017-06-27T01:32:14.735Z,0
2017-06-27T01:33:14.417Z,0
2017-06-27T01:34:14.396Z,0
2017-06-27T01:35:14.397Z,0
2017-06-27T01:36:13.750Z,0
2017-06-27T01:37:14.364Z,0
2017-06-27T01:38:14.347Z,0
2017-06-27T01:39:14.335Z,0
2017-06-27T01:40:14.634Z,0
2017-06-27T01:41:14.838Z,0
2017-06-27T01:42:14.302Z,0
2017-06-27T01:43:13.980Z,0
2017-06-27T01:44:14.588Z,0
2017-06-27T01:45:13.952Z,0
2017-06-27T01:46:14.249Z,0
2017-06-27T01:47:13.929Z,0
2017-06-27T01:48:13.913Z,0
2017-06-27T01:49:14.212Z,0
2017-06-27T01:50:14.202Z,0
2017-06-27T01:51:14.193Z,0
2017-06-27T01:52:14.180Z,0
2017-06-27T01:53:14.487Z,0
2017-06-27T01:54:14.152Z,0
2017-06-27T01:55:13.828Z,0
2017-06-27T01:56:13.820Z,0
2017-06-27T01:57:14.432Z,0
2017-06-27T01:58:14.467Z,0
2017-06-27T01:59:13.781Z,0
2017-06-27T02:00:14.394Z,0
2017-06-27T02:01:14.065Z,0
2017-06-27T02:02:13.739Z,0
2017-06-27T02:03:14.043Z,0
2017-06-27T02:04:13.720Z,0
2017-06-27T02:05:13.399Z,0
2017-06-27T02:06:14.316Z,0
2017-06-27T02:07:13.702Z,0
2017-06-27T02:08:14.298Z,0
2017-06-27T02:09:13.965Z,0
2017-06-27T02:10:13.961Z,0
2017-06-27T02:11:14.256Z,0
2017-06-27T02:12:13.627Z,0
2017-06-27T02:13:13.921Z,0
2017-06-27T02:14:13.912Z,0
2017-06-27T02:15:13.633Z,0
2017-06-27T02:16:13.578Z,0
2017-06-27T02:17:13.870Z,0
2017-06-27T02:18:13.552Z,0
2017-06-27T02:19:13.843Z,0
2017-06-27T02:20:14.148Z,0
2017-06-27T02:21:13.508Z,0
2017-06-27T02:22:13.811Z,0
2017-06-27T02:23:13.799Z,0
2017-06-27T02:24:13.158Z,0
2017-06-27T02:25:13.773Z,0
2017-06-27T02:26:13.451Z,0
2017-06-27T02:27:13.748Z,0
2017-06-27T02:28:13.424Z,0
2017-06-27T02:29:14.036Z,0
2017-06-27T02:30:14.026Z,0
2017-06-27T02:31:13.698Z,4
2017-06-27T02:32:13.371Z,4
2017-06-27T02:33:13.989Z,0
2017-06-27T02:34:13.662Z,0
2017-06-27T02:35:13.540Z,4
2017-06-27T02:36:13.943Z,4
2017-06-27T02:37:13.625Z,0
2017-06-27T02:38:13.924Z,4
2017-06-27T02:39:13.600Z,4
2017-06-27T02:40:13.284Z,4
2017-06-27T02:41:13.569Z,8
2017-06-27T02:42:13.564Z,4
2017-06-27T02:43:13.553Z,4
2017-06-27T02:44:13.540Z,8
2017-06-27T02:45:13.524Z,8
2017-06-27T02:46:13.197Z,8
2017-06-27T02:47:13.811Z,12
2017-06-27T02:48:13.487Z,12
2017-06-27T02:49:13.158Z,12
2017-06-27T02:50:13.464Z,12
2017-06-27T02:51:13.445Z,16
2017-06-27T02:52:13.122Z,20
2017-06-27T02:53:13.419Z,24
2017-06-27T02:54:13.417Z,20
2017-06-27T02:55:12.770Z,24
2017-06-27T02:56:13.387Z,28
2017-06-27T02:57:13.369Z,28
2017-06-27T02:58:13.047Z,36
2017-06-27T02:59:13.656Z,40
2017-06-27T03:00:13.020Z,44
2017-06-27T03:01:13.321Z,52
2017-06-27T03:02:13.629Z,56
2017-06-27T03:03:13.607Z,64
2017-06-27T03:04:13.598Z,72
2017-06-27T03:05:12.957Z,76
2017-06-27T03:06:12.942Z,84
2017-06-27T03:07:13.246Z,92
2017-06-27T03:08:13.239Z,100
2017-06-27T03:09:13.218Z,108
2017-06-27T03:10:13.213Z,116
2017-06-27T03:11:13.193Z,124
2017-06-27T03:12:13.540Z,132
2017-06-27T03:13:13.163Z,144
2017-06-27T03:14:12.843Z,152
2017-06-27T03:15:12.519Z,160
2017-06-27T03:16:13.446Z,168
2017-06-27T03:17:12.807Z,176
2017-06-27T03:18:13.097Z,184
2017-06-27T03:19:12.783Z,196
2017-06-27T03:20:13.081Z,204
2017-06-27T03:21:13.066Z,216
2017-06-27T03:22:12.741Z,228
2017-06-27T03:23:13.362Z,240
2017-06-27T03:24:13.027Z,256
2017-06-27T03:25:13.023Z,264
2017-06-27T03:26:13.316Z,280
2017-06-27T03:27:12.990Z,292
2017-06-27T03:28:13.292Z,304
2017-06-27T03:29:13.273Z,324
2017-06-27T03:30:12.638Z,332
2017-06-27T03:31:12.936Z,348
2017-06-27T03:32:13.240Z,364
2017-06-27T03:33:12.637Z,376
2017-06-27T03:34:12.895Z,392
2017-06-27T03:35:12.572Z,404
2017-06-27T03:36:13.191Z,420
2017-06-27T03:37:12.861Z,436
2017-06-27T03:38:12.534Z,448
2017-06-27T03:39:12.522Z,464
2017-06-27T03:40:12.860Z,488
2017-06-27T03:41:13.416Z,520
2017-06-27T03:42:13.104Z,548
2017-06-27T03:43:12.538Z,576
2017-06-27T03:44:13.090Z,608
2017-06-27T03:45:12.137Z,636
2017-06-27T03:46:12.744Z,656
2017-06-27T03:47:12.740Z,672
2017-06-27T03:48:12.408Z,692
2017-06-27T03:49:13.020Z,712
2017-06-27T03:50:13.006Z,728
2017-06-27T03:51:13.001Z,740
2017-06-27T03:52:12.092Z,752
2017-06-27T03:53:12.965Z,768
2017-06-27T03:54:12.645Z,780
2017-06-27T03:55:12.630Z,800
2017-06-27T03:56:12.303Z,820
2017-06-27T03:57:12.607Z,844
2017-06-27T03:58:12.278Z,860
2017-06-27T03:59:12.584Z,872
2017-06-27T04:00:11.939Z,884
2017-06-27T04:01:12.552Z,900
2017-06-27T04:02:11.915Z,912
2017-06-27T04:03:12.849Z,928
2017-06-27T04:04:12.515Z,944
2017-06-27T04:05:12.195Z,964
2017-06-27T04:06:12.497Z,988
2017-06-27T04:07:12.479Z,1020
2017-06-27T04:08:12.470Z,1052
2017-06-27T04:09:12.450Z,1076
2017-06-27T04:10:12.128Z,1104
2017-06-27T04:11:12.748Z,1136
2017-06-27T04:12:12.419Z,1164
2017-06-27T04:13:12.097Z,1196
2017-06-27T04:14:12.390Z,1212
2017-06-27T04:15:12.696Z,1232
2017-06-27T04:16:12.365Z,1248
2017-06-27T04:17:12.041Z,1264
2017-06-27T04:18:12.353Z,1276
2017-06-27T04:19:12.346Z,1292
2017-06-27T04:20:12.675Z,1328
2017-06-27T04:21:12.620Z,1360
2017-06-27T04:22:12.295Z,1400
2017-06-27T04:23:12.284Z,1436
2017-06-27T04:24:11.961Z,1464
2017-06-27T04:25:11.945Z,1484
2017-06-27T04:26:11.931Z,1508
2017-06-27T04:27:12.281Z,1528
2017-06-27T04:28:11.907Z,1556
2017-06-27T04:29:12.554Z,1576
2017-06-27T04:30:11.903Z,1588
2017-06-27T04:31:11.605Z,1604
2017-06-27T04:32:12.487Z,1632
2017-06-27T04:33:12.481Z,1664
2017-06-27T04:34:12.148Z,1696
2017-06-27T04:35:12.137Z,1720
2017-06-27T04:36:12.124Z,1744
2017-06-27T04:37:11.844Z,1776
2017-06-27T04:38:11.790Z,1824
2017-06-27T04:39:12.395Z,1900
2017-06-27T04:40:11.754Z,1980
2017-06-27T04:41:12.057Z,2056
2017-06-27T04:42:12.045Z,2128
2017-06-27T04:43:11.721Z,2164
2017-06-27T04:44:12.332Z,2184
2017-06-27T04:45:12.015Z,2220
2017-06-27T04:46:11.998Z,2272
2017-06-27T04:47:11.682Z,2332
2017-06-27T04:48:11.991Z,2412
2017-06-27T04:49:11.960Z,2496
2017-06-27T04:50:11.948Z,2564
2017-06-27T04:51:11.970Z,2592
2017-06-27T04:52:12.239Z,2632
2017-06-27T04:53:11.910Z,2688
2017-06-27T04:54:11.592Z,2756
2017-06-27T04:55:11.890Z,2812
2017-06-27T04:56:12.192Z,2840
2017-06-27T04:57:11.863Z,2840
2017-06-27T04:58:12.169Z,2836
2017-06-27T04:59:11.841Z,2828
2017-06-27T05:00:11.831Z,2824
2017-06-27T05:01:11.823Z,2836
2017-06-27T05:02:11.492Z,2840
2017-06-27T05:03:12.104Z,2824
2017-06-27T05:04:11.781Z,2796
2017-06-27T05:05:11.775Z,2760
2017-06-27T05:06:11.758Z,2724
2017-06-27T05:07:11.428Z,2704
2017-06-27T05:08:11.734Z,2680
2017-06-27T05:09:11.723Z,2660
2017-06-27T05:10:11.740Z,2656
2017-06-27T05:11:11.069Z,2672
2017-06-27T05:12:11.374Z,2716
2017-06-27T05:13:11.698Z,2772
2017-06-27T05:14:11.352Z,2828
2017-06-27T05:15:11.650Z,2884
2017-06-27T05:16:11.336Z,2916
2017-06-27T05:17:11.634Z,2924
2017-06-27T05:18:11.305Z,2932
2017-06-27T05:19:11.289Z,2940
2017-06-27T05:20:11.284Z,2964
2017-06-27T05:21:11.585Z,2984
2017-06-27T05:22:11.605Z,3008
2017-06-27T05:23:11.565Z,3000
2017-06-27T05:24:11.862Z,3032
2017-06-27T05:25:11.535Z,3108
2017-06-27T05:26:11.242Z,3204
2017-06-27T05:27:11.824Z,3340
2017-06-27T05:28:11.498Z,3472
2017-06-27T05:29:11.177Z,3536
2017-06-27T05:30:11.792Z,3584
2017-06-27T05:31:11.154Z,3620
2017-06-27T05:32:11.765Z,3712
2017-06-27T05:33:11.132Z,3820
2017-06-27T05:34:11.434Z,3872
2017-06-27T05:35:11.737Z,3924
2017-06-27T05:36:11.413Z,3904
2017-06-27T05:37:11.712Z,3876
2017-06-27T05:38:11.389Z,3916
2017-06-27T05:39:11.381Z,3940
2017-06-27T05:40:11.365Z,3968
2017-06-27T05:41:11.865Z,3988
2017-06-27T05:42:11.663Z,3992
2017-06-27T05:43:11.021Z,4008
2017-06-27T05:44:11.669Z,4100
2017-06-27T05:45:11.312Z,4232
2017-06-27T05:46:11.301Z,4380
2017-06-27T05:47:10.977Z,4524
2017-06-27T05:48:11.274Z,4628
2017-06-27T05:49:11.265Z,4660
2017-06-27T05:50:11.257Z,4632
2017-06-27T05:51:10.958Z,4592
2017-06-27T05:52:11.564Z,4544
2017-06-27T05:53:11.227Z,4536
2017-06-27T05:54:11.210Z,4600
2017-06-27T05:55:10.891Z,4716
2017-06-27T05:56:11.187Z,4828
2017-06-27T05:57:11.496Z,4892
2017-06-27T05:58:10.857Z,4932
2017-06-27T05:59:11.190Z,5012
2017-06-27T06:00:11.476Z,5116
2017-06-27T06:01:11.450Z,5264
2017-06-27T06:02:10.810Z,5428
2017-06-27T06:03:10.811Z,5560
2017-06-27T06:04:10.796Z,5648
2017-06-27T06:05:11.091Z,5656
2017-06-27T06:06:10.778Z,5640
2017-06-27T06:07:10.765Z,5600
2017-06-27T06:08:11.374Z,5524
2017-06-27T06:09:10.742Z,5472
2017-06-27T06:10:11.047Z,5452
2017-06-27T06:11:11.031Z,5492
2017-06-27T06:12:10.716Z,5504
2017-06-27T06:13:10.697Z,5480
2017-06-27T06:14:10.684Z,5388
2017-06-27T06:15:10.684Z,5336
2017-06-27T06:16:10.978Z,5240
2017-06-27T06:17:10.972Z,5208
2017-06-27T06:18:10.647Z,5376
2017-06-27T06:19:10.324Z,5804
2017-06-27T06:20:10.624Z,5524
2017-06-27T06:21:11.240Z,5672
2017-06-27T06:22:10.633Z,7292
2017-06-27T06:23:10.917Z,5632
2017-06-27T06:24:10.586Z,5584
2017-06-27T06:25:10.579Z,5740
2017-06-27T06:26:10.876Z,5960
2017-06-27T06:27:11.188Z,6092
2017-06-27T06:28:11.203Z,6168
2017-06-27T06:29:11.165Z,6172
2017-06-27T06:30:10.847Z,6124
2017-06-27T06:31:10.519Z,6088
2017-06-27T06:32:10.819Z,6100
2017-06-27T06:33:10.811Z,6140
2017-06-27T06:34:10.490Z,6160
2017-06-27T06:35:10.475Z,6124
2017-06-27T06:36:11.098Z,6096
2017-06-27T06:37:10.770Z,6108
2017-06-27T06:38:11.069Z,6160
2017-06-27T06:39:10.434Z,6204
2017-06-27T06:40:10.429Z,6176
2017-06-27T06:41:10.154Z,6160
2017-06-27T06:42:10.406Z,6220
2017-06-27T06:43:11.026Z,6252
2017-06-27T06:44:10.705Z,6428
2017-06-27T06:45:11.001Z,6688
2017-06-27T06:46:11.000Z,7244
2017-06-27T06:47:10.356Z,7608
2017-06-27T06:48:10.662Z,7308
2017-06-27T06:49:10.653Z,7536
2017-06-27T06:50:10.330Z,7384
2017-06-27T06:51:10.952Z,7240
2017-06-27T06:52:10.938Z,7124
2017-06-27T06:53:10.302Z,7048
2017-06-27T06:54:10.920Z,7056
2017-06-27T06:55:10.919Z,7028
2017-06-27T06:56:10.901Z,6988
2017-06-27T06:57:10.893Z,6968
2017-06-27T06:58:10.876Z,6968
2017-06-27T06:59:10.878Z,7020
2017-06-27T07:00:10.550Z,7120
2017-06-27T07:01:10.540Z,7244
2017-06-27T07:02:10.529Z,7364
2017-06-27T07:03:10.528Z,7436
2017-06-27T07:04:10.827Z,7500
2017-06-27T07:05:10.195Z,7548
2017-06-27T07:06:10.497Z,7596
2017-06-27T07:07:10.821Z,7684
2017-06-27T07:08:10.480Z,7828
2017-06-27T07:09:10.161Z,7992
2017-06-27T07:10:10.459Z,8132
2017-06-27T07:11:10.133Z,8220
2017-06-27T07:12:10.124Z,8236
2017-06-27T07:13:10.745Z,8280
2017-06-27T07:14:10.735Z,8336
2017-06-27T07:15:10.093Z,8416
2017-06-27T07:16:10.407Z,8540
2017-06-27T07:17:10.708Z,8692
2017-06-27T07:18:10.389Z,8836
2017-06-27T07:19:10.375Z,8984
2017-06-27T07:20:10.685Z,9188
2017-06-27T07:21:10.051Z,10264
2017-06-27T07:22:10.040Z,9872
2017-06-27T07:23:10.031Z,9312
2017-06-27T07:24:10.645Z,9644
2017-06-27T07:25:10.322Z,12528
2017-06-27T07:26:09.697Z,10036
2017-06-27T07:27:10.621Z,9312
2017-06-27T07:28:10.306Z,9536
2017-06-27T07:29:09.977Z,9352
2017-06-27T07:30:09.971Z,9492
2017-06-27T07:31:10.278Z,9860
2017-06-27T07:32:09.957Z,9760
2017-06-27T07:33:10.262Z,9968
2017-06-27T07:34:10.574Z,10060
2017-06-27T07:35:09.927Z,10456
2017-06-27T07:36:10.234Z,11052
2017-06-27T07:37:10.226Z,11900
2017-06-27T07:38:10.217Z,11132
2017-06-27T07:39:10.213Z,11000
2017-06-27T07:40:10.512Z,12424
2017-06-27T07:41:09.880Z,12592
2017-06-27T07:42:10.497Z,12644
2017-06-27T07:43:10.183Z,12020
2017-06-27T07:44:10.170Z,13960
2017-06-27T07:45:10.165Z,14120
2017-06-27T07:46:10.469Z,12544
2017-06-27T07:47:09.830Z,14780
2017-06-27T07:48:10.454Z,16312
2017-06-27T07:49:09.821Z,13108
2017-06-27T07:50:09.499Z,13120
2017-06-27T07:51:09.488Z,12252
2017-06-27T07:52:10.121Z,13772
2017-06-27T07:53:10.103Z,13772
2017-06-27T07:54:09.811Z,14160
2017-06-27T07:55:10.091Z,12160
2017-06-27T07:56:10.396Z,11512
2017-06-27T07:57:10.069Z,11072
2017-06-27T07:58:10.061Z,11500
2017-06-27T07:59:10.107Z,10444
2017-06-27T08:00:09.742Z,9144
2017-06-27T08:01:10.045Z,8916
2017-06-27T08:02:10.034Z,8828
2017-06-27T08:03:09.721Z,8768
2017-06-27T08:04:10.021Z,8724
2017-06-27T08:05:09.699Z,8744
2017-06-27T08:06:10.010Z,8808
2017-06-27T08:07:09.688Z,8892
2017-06-27T08:08:09.999Z,8924
2017-06-27T08:09:10.300Z,8916
2017-06-27T08:10:09.985Z,8892
2017-06-27T08:11:09.663Z,8964
2017-06-27T08:12:09.976Z,8984
2017-06-27T08:13:09.990Z,9324
2017-06-27T08:14:09.639Z,8592
2017-06-27T08:15:09.628Z,8424
2017-06-27T08:16:09.939Z,8264
2017-06-27T08:17:09.611Z,8124
2017-06-27T08:18:09.299Z,8056
2017-06-27T08:19:10.228Z,8024
2017-06-27T08:20:09.594Z,8016
2017-06-27T08:21:09.282Z,8016
2017-06-27T08:22:09.898Z,7996
2017-06-27T08:23:09.889Z,7956
2017-06-27T08:24:09.881Z,7872
2017-06-27T08:25:09.877Z,7796
2017-06-27T08:26:09.870Z,7760
2017-06-27T08:27:10.181Z,7708
2017-06-27T08:28:09.853Z,7708
2017-06-27T08:29:10.160Z,7772
2017-06-27T08:30:09.836Z,7880
2017-06-27T08:31:09.513Z,7968
2017-06-27T08:32:09.835Z,8072
2017-06-27T08:33:10.130Z,8168
2017-06-27T08:34:09.178Z,8212
2017-06-27T08:35:09.532Z,8376
2017-06-27T08:36:09.799Z,8436
2017-06-27T08:37:10.118Z,8452
2017-06-27T08:38:09.465Z,8468
2017-06-27T08:39:09.766Z,8492
2017-06-27T08:40:09.452Z,8504
2017-06-27T08:41:09.764Z,8520
2017-06-27T08:42:10.068Z,8572
2017-06-27T08:43:09.748Z,8604
2017-06-27T08:44:10.047Z,8580
2017-06-27T08:45:09.419Z,8512
2017-06-27T08:46:09.405Z,8492
2017-06-27T08:47:09.087Z,8468
2017-06-27T08:48:09.703Z,8424
2017-06-27T08:49:09.077Z,8360
2017-06-27T08:50:09.379Z,8212
2017-06-27T08:51:09.687Z,8060
2017-06-27T08:52:09.362Z,7912
2017-06-27T08:53:09.355Z,7772
2017-06-27T08:54:09.356Z,7616
2017-06-27T08:55:09.660Z,7500
2017-06-27T08:56:09.695Z,7428
2017-06-27T08:57:09.952Z,7352
2017-06-27T08:58:09.636Z,7248
2017-06-27T08:59:08.996Z,7188
2017-06-27T09:00:09.622Z,7132
2017-06-27T09:01:09.645Z,7084
2017-06-27T09:02:09.288Z,7060
2017-06-27T09:03:08.977Z,7032
2017-06-27T09:04:09.279Z,6976
2017-06-27T09:05:09.899Z,6928
2017-06-27T09:06:09.574Z,6904
2017-06-27T09:07:09.251Z,6904
2017-06-27T09:08:08.933Z,6908
2017-06-27T09:09:09.551Z,6932
2017-06-27T09:10:09.230Z,6980
2017-06-27T09:11:09.226Z,7012
2017-06-27T09:12:09.213Z,7040
2017-06-27T09:13:09.206Z,7032
2017-06-27T09:14:09.547Z,7000
2017-06-27T09:15:09.818Z,6976
2017-06-27T09:16:09.510Z,6968
2017-06-27T09:17:09.487Z,6956
2017-06-27T09:18:09.487Z,6964
2017-06-27T09:19:09.792Z,7012
2017-06-27T09:20:09.157Z,7048
2017-06-27T09:21:09.164Z,7084
2017-06-27T09:22:09.458Z,7152
2017-06-27T09:23:09.139Z,7264
2017-06-27T09:24:09.432Z,7356
2017-06-27T09:25:09.438Z,7452
2017-06-27T09:26:09.429Z,7532
2017-06-27T09:27:09.110Z,7576
2017-06-27T09:28:09.723Z,7584
2017-06-27T09:29:09.399Z,7556
2017-06-27T09:30:09.089Z,7528
2017-06-27T09:31:09.076Z,7520
2017-06-27T09:32:09.381Z,7540
2017-06-27T09:33:08.743Z,7588
2017-06-27T09:34:09.372Z,7672
2017-06-27T09:35:08.734Z,7800
2017-06-27T09:36:09.054Z,7956
2017-06-27T09:37:09.357Z,8128
2017-06-27T09:38:09.026Z,8296
2017-06-27T09:39:09.331Z,8432
2017-06-27T09:40:09.323Z,8536
2017-06-27T09:41:09.313Z,8560
2017-06-27T09:42:09.825Z,8604
2017-06-27T09:43:08.995Z,8596
2017-06-27T09:44:08.979Z,8576
2017-06-27T09:45:08.973Z,8512
2017-06-27T09:46:08.965Z,8456
2017-06-27T09:47:09.275Z,8356
2017-06-27T09:48:08.955Z,8256
2017-06-27T09:49:08.943Z,8192
2017-06-27T09:50:08.933Z,8244
2017-06-27T09:51:09.244Z,8312
2017-06-27T09:52:09.244Z,8460
2017-06-27T09:53:09.604Z,8624
2017-06-27T09:54:08.910Z,8796
2017-06-27T09:55:08.904Z,8916
2017-06-27T09:56:09.202Z,8976
2017-06-27T09:57:08.886Z,9016
2017-06-27T09:58:09.517Z,9064
2017-06-27T09:59:09.187Z,9148
2017-06-27T10:00:08.862Z,9272
2017-06-27T10:01:09.197Z,9516
2017-06-27T10:02:08.543Z,9776
2017-06-27T10:03:08.841Z,10080
2017-06-27T10:04:09.147Z,10316
2017-06-27T10:05:09.152Z,10428
2017-06-27T10:06:08.823Z,10552
2017-06-27T10:07:09.125Z,10544
2017-06-27T10:08:09.125Z,10432
2017-06-27T10:09:09.116Z,10112
2017-06-27T10:10:09.110Z,9804
2017-06-27T10:11:08.786Z,9604
2017-06-27T10:12:08.779Z,9572
2017-06-27T10:13:09.406Z,9852
2017-06-27T10:14:09.078Z,10224
2017-06-27T10:15:09.077Z,10680
2017-06-27T10:16:09.390Z,11036
2017-06-27T10:17:08.754Z,11308
2017-06-27T10:18:09.367Z,11464
2017-06-27T10:19:09.047Z,11564
2017-06-27T10:20:08.731Z,11464
2017-06-27T10:21:08.721Z,11168
2017-06-27T10:22:09.347Z,10884
2017-06-27T10:23:09.030Z,10684
2017-06-27T10:24:09.025Z,10604
2017-06-27T10:25:09.006Z,10604
2017-06-27T10:26:08.693Z,10648
2017-06-27T10:27:08.685Z,10632
2017-06-27T10:28:09.300Z,10632
2017-06-27T10:29:09.313Z,10620
2017-06-27T10:30:08.353Z,10604
2017-06-27T10:31:08.665Z,10608
2017-06-27T10:32:08.965Z,10624
2017-06-27T10:33:08.962Z,10580
2017-06-27T10:34:08.322Z,10540
2017-06-27T10:35:08.950Z,10572
2017-06-27T10:36:09.254Z,10628
2017-06-27T10:37:08.616Z,10668
2017-06-27T10:38:08.964Z,10716
2017-06-27T10:39:08.610Z,10792
2017-06-27T10:40:08.924Z,10904
2017-06-27T10:41:09.223Z,11124
2017-06-27T10:42:09.219Z,11492
2017-06-27T10:43:08.909Z,12000
2017-06-27T10:44:08.889Z,12532
2017-06-27T10:45:08.887Z,13132
2017-06-27T10:46:08.560Z,13964
2017-06-27T10:47:08.561Z,14776
2017-06-27T10:48:08.868Z,15924
2017-06-27T10:49:08.551Z,16044
2017-06-27T10:50:09.162Z,15800
2017-06-27T10:51:08.535Z,15592
2017-06-27T10:52:08.843Z,15720
2017-06-27T10:53:09.145Z,16052
2017-06-27T10:54:08.840Z,16640
2017-06-27T10:55:08.829Z,16832
2017-06-27T10:56:09.131Z,15264
2017-06-27T10:57:08.236Z,14528
2017-06-27T10:58:08.494Z,14248
2017-06-27T10:59:08.495Z,14044
2017-06-27T11:00:08.175Z,13732
2017-06-27T11:01:08.478Z,13608
2017-06-27T11:02:09.104Z,13472
2017-06-27T11:03:08.790Z,12960
2017-06-27T11:04:08.774Z,12512
2017-06-27T11:05:09.089Z,12468
2017-06-27T11:06:09.072Z,12552
2017-06-27T11:07:08.447Z,12712
2017-06-27T11:08:08.749Z,12824
2017-06-27T11:09:09.054Z,12832
2017-06-27T11:10:08.769Z,12868
2017-06-27T11:11:08.432Z,12468
2017-06-27T11:12:08.754Z,11952
2017-06-27T11:13:08.108Z,11824
2017-06-27T11:14:08.719Z,11300
2017-06-27T11:15:08.721Z,10996
2017-06-27T11:16:08.709Z,10944
2017-06-27T11:17:08.704Z,10876
2017-06-27T11:18:08.710Z,10788
2017-06-27T11:19:08.406Z,10748
2017-06-27T11:20:08.692Z,10700
2017-06-27T11:21:08.999Z,10672
2017-06-27T11:22:08.683Z,10736
2017-06-27T11:23:08.996Z,10764
2017-06-27T11:24:08.669Z,10828
2017-06-27T11:25:08.663Z,10868
2017-06-27T11:26:08.659Z,10864
2017-06-27T11:27:08.657Z,10872
2017-06-27T11:28:08.658Z,10968
2017-06-27T11:29:08.329Z,11140
2017-06-27T11:30:08.326Z,11384
2017-06-27T11:31:08.634Z,11596
2017-06-27T11:32:08.636Z,11836
2017-06-27T11:33:08.349Z,12180
2017-06-27T11:34:08.613Z,12304
2017-06-27T11:35:08.616Z,12488
2017-06-27T11:36:08.922Z,12564
2017-06-27T11:37:08.293Z,12572
2017-06-27T11:38:08.282Z,12812
2017-06-27T11:39:08.616Z,13288
2017-06-27T11:40:08.895Z,13648
2017-06-27T11:41:08.579Z,14072
2017-06-27T11:42:08.517Z,14112
2017-06-27T11:43:08.564Z,14244
2017-06-27T11:44:08.572Z,13588
2017-06-27T11:45:08.576Z,13144
2017-06-27T11:46:08.244Z,12864
2017-06-27T11:47:07.932Z,12812
2017-06-27T11:48:08.550Z,11872
2017-06-27T11:49:08.546Z,10976
2017-06-27T11:50:08.534Z,10088
2017-06-27T11:51:08.527Z,9524
2017-06-27T11:52:08.526Z,9124
2017-06-27T11:53:08.515Z,8688
2017-06-27T11:54:08.199Z,8352
2017-06-27T11:55:08.198Z,8076
2017-06-27T11:56:08.506Z,7872
2017-06-27T11:57:08.179Z,7728
2017-06-27T11:58:08.193Z,7656
2017-06-27T11:59:08.187Z,7668
2017-06-27T12:00:07.865Z,7760
2017-06-27T12:01:07.849Z,7956
2017-06-27T12:02:08.166Z,8224
2017-06-27T12:03:08.795Z,8496
2017-06-27T12:04:08.149Z,8824
2017-06-27T12:05:08.765Z,9188
2017-06-27T12:06:08.138Z,9492
2017-06-27T12:07:08.444Z,9804
2017-06-27T12:08:08.771Z,9948
2017-06-27T12:09:08.121Z,9884
2017-06-27T12:10:08.424Z,9712
2017-06-27T12:11:08.734Z,9564
2017-06-27T12:12:07.841Z,9464
2017-06-27T12:13:08.098Z,9400
2017-06-27T12:14:08.093Z,9320
2017-06-27T12:15:08.094Z,9204
2017-06-27T12:16:08.708Z,9092
2017-06-27T12:17:08.081Z,8968
2017-06-27T12:18:08.071Z,8876
2017-06-27T12:19:08.066Z,8780
2017-06-27T12:20:08.686Z,8692
2017-06-27T12:21:07.750Z,8668
2017-06-27T12:22:08.049Z,8672
2017-06-27T12:23:08.357Z,8712
2017-06-27T12:24:08.718Z,8804
2017-06-27T12:25:08.666Z,8892
2017-06-27T12:26:08.342Z,8996
2017-06-27T12:27:08.341Z,9092
2017-06-27T12:28:08.645Z,9068
2017-06-27T12:29:08.009Z,8920
2017-06-27T12:30:08.315Z,8740
2017-06-27T12:31:08.001Z,8600
2017-06-27T12:32:08.622Z,8552
2017-06-27T12:33:08.304Z,8568
2017-06-27T12:34:07.988Z,8692
2017-06-27T12:35:07.983Z,8920
2017-06-27T12:36:07.969Z,9240
2017-06-27T12:37:08.591Z,9656
2017-06-27T12:38:07.963Z,10136
2017-06-27T12:39:07.955Z,10664
2017-06-27T12:40:08.269Z,11296
2017-06-27T12:41:07.950Z,12048
2017-06-27T12:42:07.943Z,12944
2017-06-27T12:43:07.932Z,14184
2017-06-27T12:44:08.550Z,15292
2017-06-27T12:45:08.244Z,16960
2017-06-27T12:46:07.920Z,17696
2017-06-27T12:47:08.539Z,19008
2017-06-27T12:48:07.915Z,20768
2017-06-27T12:49:08.534Z,24480
2017-06-27T12:50:07.901Z,27200
2017-06-27T12:51:08.203Z,26816
2017-06-27T12:52:08.339Z,26400
2017-06-27T12:53:07.883Z,28288
2017-06-27T12:54:08.610Z,43616
2017-06-27T12:55:08.187Z,44288
2017-06-27T12:56:08.504Z,32160
2017-06-27T12:57:08.497Z,25504
2017-06-27T12:58:08.484Z,26112
2017-06-27T12:59:08.174Z,24608
2017-06-27T13:00:07.894Z,23296
2017-06-27T13:01:08.198Z,20640
2017-06-27T13:02:08.479Z,24064
2017-06-27T13:03:08.465Z,25216
2017-06-27T13:04:07.841Z,22016
2017-06-27T13:05:07.843Z,19424
2017-06-27T13:06:07.825Z,17376
2017-06-27T13:07:08.152Z,16384
2017-06-27T13:08:08.387Z,15340
2017-06-27T13:09:08.130Z,15180
2017-06-27T13:10:07.501Z,16044
2017-06-27T13:11:08.437Z,16188
2017-06-27T13:12:08.127Z,17472
2017-06-27T13:13:08.121Z,17440
2017-06-27T13:14:08.429Z,16704
2017-06-27T13:15:08.421Z,16236
2017-06-27T13:16:07.804Z,15376
2017-06-27T13:17:08.113Z,15052
2017-06-27T13:18:08.100Z,15160
2017-06-27T13:19:08.094Z,15040
2017-06-27T13:20:08.097Z,14848
2017-06-27T13:21:08.096Z,15232
2017-06-27T13:22:08.407Z,15388
2017-06-27T13:23:08.395Z,15140
2017-06-27T13:24:07.504Z,14656
2017-06-27T13:25:08.395Z,14128
2017-06-27T13:26:08.070Z,13756
2017-06-27T13:27:08.377Z,13540
2017-06-27T13:28:08.374Z,13308
2017-06-27T13:29:07.746Z,12956
2017-06-27T13:30:08.057Z,12620
2017-06-27T13:31:08.367Z,12064
2017-06-27T13:32:07.735Z,11744